Time;durP1;ratioP1;P1;durP2;ratioP2;P2;SDS_P1;SDS_P2;PMS_P1;PMS_P2;Temp;Humidity;BMP_temperature;BMP_pressure;BME280_temperature;BME280_humidity;BME280_pressure;Samples;Min_cycle;Max_cycle;Signal;HPM_P1;HPM_P2
2021/08/24 00:01:01;;;;;;;5.97;3.45;;;24.30;81.00;;;;;;5006231;28;20219;-73
2021/08/24 00:03:28;;;;;;;5.73;3.03;;;24.30;80.00;;;;;;5003646;28;20196;-73
2021/08/24 00:05:54;;;;;;;5.43;3.30;;;24.30;80.10;;;;;;5004444;28;20185;-71
2021/08/24 00:08:21;;;;;;;4.47;3.00;;;24.30;79.80;;;;;;5005419;28;20288;-71
2021/08/24 00:10:55;;;;;;;5.07;3.10;;;24.30;80.20;;;;;;5003562;28;20205;-71
2021/08/24 00:13:24;;;;;;;4.50;3.00;;;24.30;80.20;;;;;;5021637;28;20194;-73
2021/08/24 00:15:52;;;;;;;3.90;3.17;;;24.20;79.30;;;;;;5004971;28;20199;-73
2021/08/24 00:18:18;;;;;;;4.97;3.55;;;24.30;79.70;;;;;;5003240;28;20688;-74
2021/08/24 00:20:50;;;;;;;5.60;3.13;;;24.20;78.20;;;;;;5005013;28;20201;-74
2021/08/24 00:23:21;;;;;;;3.67;2.95;;;24.20;79.10;;;;;;5001145;28;20197;-71
2021/08/24 00:25:52;;;;;;;6.72;3.05;;;24.30;79.70;;;;;;5009546;28;20208;-74
2021/08/24 00:28:20;;;;;;;5.80;3.37;;;24.30;79.10;;;;;;4982868;28;20751;-73
2021/08/24 00:30:48;;;;;;;6.67;3.67;;;24.30;78.90;;;;;;4998023;28;20208;-72
2021/08/24 00:33:16;;;;;;;5.47;3.10;;;24.20;78.70;;;;;;5004499;28;20196;-73
2021/08/24 00:35:43;;;;;;;5.40;3.40;;;24.20;78.80;;;;;;5002749;28;20284;-75
2021/08/24 00:38:16;;;;;;;7.03;3.20;;;24.20;79.00;;;;;;5001720;28;20288;-74
2021/08/24 00:40:56;;;;;;;5.90;3.47;;;24.20;78.30;;;;;;4999489;28;20197;-72
2021/08/24 00:43:25;;;;;;;5.10;3.50;;;24.20;78.30;;;;;;5000931;28;20279;-71
2021/08/24 00:46:01;;;;;;;4.35;3.40;;;24.20;78.60;;;;;;4988936;28;20844;-72
2021/08/24 00:48:32;;;;;;;4.77;3.00;;;24.20;79.10;;;;;;5000340;28;20227;-74
2021/08/24 00:50:59;;;;;;;5.97;3.13;;;24.20;77.90;;;;;;5008287;28;20201;-75
2021/08/24 00:53:33;;;;;;;6.50;3.20;;;24.20;77.80;;;;;;5005108;28;20195;-74
2021/08/24 00:56:01;;;;;;;8.10;3.67;;;24.20;77.60;;;;;;4987168;28;20263;-74
2021/08/24 00:58:28;;;;;;;4.30;3.00;;;24.20;78.10;;;;;;5012602;28;20613;-73
2021/08/24 01:00:54;;;;;;;6.73;3.10;;;24.20;77.40;;;;;;4992164;28;20189;-74
2021/08/24 01:03:27;;;;;;;5.53;3.30;;;24.10;76.70;;;;;;4998674;28;20216;-73
2021/08/24 01:06:06;;;;;;;5.13;3.28;;;24.10;77.10;;;;;;5003423;28;20637;-74
2021/08/24 01:09:19;;;;;;;5.00;3.10;;;24.20;78.00;;;;;;5000254;28;20196;-73
2021/08/24 01:12:19;;;;;;;4.88;2.92;;;24.20;77.30;;;;;;5003244;28;20208;-73
2021/08/24 01:15:21;;;;;;;5.87;2.93;;;24.30;76.80;;;;;;5013841;28;20219;-73
2021/08/24 01:17:56;;;;;;;7.47;3.43;;;24.30;77.10;;;;;;4996957;28;20188;-73
2021/08/24 01:21:03;;;;;;;4.55;3.17;;;24.30;76.60;;;;;;5000116;28;20529;-72
2021/08/24 01:23:52;;;;;;;4.67;2.90;;;24.30;76.50;;;;;;4982847;28;20259;-72
2021/08/24 01:26:52;;;;;;;6.60;3.23;;;24.20;76.10;;;;;;5002489;28;20190;-74
2021/08/24 01:29:42;;;;;;;5.47;3.10;;;24.20;76.00;;;;;;4987644;28;20197;-74
2021/08/24 01:32:55;;;;;;;9.73;3.30;;;24.20;75.90;;;;;;4980070;28;20694;-71
2021/08/24 01:35:44;;;;;;;4.40;2.83;;;24.10;75.70;;;;;;5000436;28;20203;-71
2021/08/24 01:38:26;;;;;;;5.53;3.20;;;24.20;76.10;;;;;;4994198;28;20218;-74
2021/08/24 01:41:31;;;;;;;10.75;3.13;;;24.20;76.20;;;;;;4981959;28;20193;-74
2021/08/24 01:44:17;;;;;;;6.00;2.90;;;24.20;76.40;;;;;;4997755;28;20211;-73
2021/08/24 01:47:43;;;;;;;3.60;2.83;;;24.20;75.80;;;;;;4998903;28;20263;-72
2021/08/24 01:50:19;;;;;;;6.63;3.40;;;24.10;75.20;;;;;;4980123;28;20200;-72
2021/08/24 01:53:03;;;;;;;5.03;3.17;;;24.10;75.60;;;;;;5002112;28;20806;-72
2021/08/24 01:55:39;;;;;;;5.53;2.80;;;24.10;75.40;;;;;;5000661;28;20192;-72
2021/08/24 01:58:22;;;;;;;6.60;3.20;;;24.00;75.30;;;;;;4949060;28;1471113;-72
2021/08/24 02:00:56;;;;;;;8.17;3.13;;;24.00;75.30;;;;;;4998056;28;20184;-72
2021/08/24 02:03:34;;;;;;;6.27;3.13;;;24.00;75.80;;;;;;4998975;28;20195;-75
2021/08/24 02:06:14;;;;;;;5.37;2.87;;;24.00;75.40;;;;;;5000166;28;20922;-74
2021/08/24 02:08:47;;;;;;;5.73;3.53;;;24.00;75.00;;;;;;5002050;28;20193;-74
2021/08/24 02:11:14;;;;;;;5.28;3.38;;;24.00;75.50;;;;;;4997184;28;20184;-74
2021/08/24 02:13:47;;;;;;;8.37;3.20;;;24.00;75.70;;;;;;4997155;28;20219;-74
2021/08/24 02:16:24;;;;;;;4.10;2.67;;;24.00;75.30;;;;;;5004974;28;20664;-73
2021/08/24 02:19:08;;;;;;;7.60;2.92;;;24.00;75.40;;;;;;5001054;28;20208;-73
2021/08/24 02:21:57;;;;;;;5.93;2.83;;;24.00;75.50;;;;;;5005285;28;20192;-73
2021/08/24 02:24:37;;;;;;;3.80;2.93;;;24.00;75.70;;;;;;5003044;28;20185;-73
2021/08/24 02:27:11;;;;;;;4.43;3.30;;;24.00;75.90;;;;;;4998661;28;20511;-74
2021/08/24 02:29:38;;;;;;;4.73;3.20;;;24.00;76.10;;;;;;4999921;28;20271;-73
2021/08/24 02:32:18;;;;;;;6.23;2.97;;;24.00;76.60;;;;;;4999698;28;20224;-73
2021/08/24 02:34:53;;;;;;;6.47;2.80;;;24.00;76.10;;;;;;5001431;28;22794;-74
2021/08/24 02:37:42;;;;;;;5.27;3.10;;;24.00;76.10;;;;;;5003371;28;20235;-73
2021/08/24 02:40:38;;;;;;;6.22;3.00;;;24.00;76.30;;;;;;5002371;28;20661;-73
2021/08/24 02:43:29;;;;;;;20.57;3.33;;;24.00;76.50;;;;;;5001806;28;20181;-73
2021/08/24 02:46:16;;;;;;;5.47;3.10;;;24.00;76.20;;;;;;5003460;28;20187;-74
2021/08/24 02:48:49;;;;;;;3.50;2.63;;;24.00;76.00;;;;;;4999730;28;20207;-74
2021/08/24 02:51:18;;;;;;;6.77;2.80;;;24.00;75.60;;;;;;4987405;28;20199;-73
2021/08/24 02:54:00;;;;;;;5.50;2.90;;;23.90;75.20;;;;;;5000848;28;20538;-74
2021/08/24 02:56:26;;;;;;;3.97;2.83;;;23.90;75.30;;;;;;5003205;28;20303;-74
2021/08/24 02:58:52;;;;;;;3.83;2.80;;;23.90;75.00;;;;;;4997497;28;20317;-74
2021/08/24 03:01:19;;;;;;;5.45;3.15;;;23.90;74.90;;;;;;5001636;28;20193;-73
2021/08/24 03:03:45;;;;;;;4.17;2.43;;;23.90;74.60;;;;;;4990759;28;20193;-73
2021/08/24 03:06:11;;;;;;;6.35;2.75;;;23.90;74.30;;;;;;5002343;28;20275;-72
2021/08/24 03:08:39;;;;;;;5.30;2.97;;;23.90;75.00;;;;;;5000840;28;21198;-73
2021/08/24 03:11:08;;;;;;;4.38;2.80;;;23.90;75.30;;;;;;5000574;28;20668;-74
2021/08/24 03:13:48;;;;;;;6.40;3.17;;;23.90;74.10;;;;;;5002453;28;20197;-74
2021/08/24 03:16:29;;;;;;;11.15;3.30;;;23.80;74.10;;;;;;4998987;28;20973;-75
2021/08/24 03:19:03;;;;;;;6.03;3.10;;;23.80;74.30;;;;;;5002327;28;20341;-74
2021/08/24 03:21:35;;;;;;;7.00;3.27;;;23.80;74.40;;;;;;5000541;28;20220;-75
2021/08/24 03:24:07;;;;;;;5.00;3.15;;;23.80;74.60;;;;;;5000144;28;20258;-74
2021/08/24 03:26:38;;;;;;;6.07;3.27;;;23.80;74.80;;;;;;4997626;28;20303;-73
2021/08/24 03:29:16;;;;;;;5.63;2.63;;;23.80;75.30;;;;;;5002972;28;20284;-71
2021/08/24 03:31:50;;;;;;;3.80;3.10;;;23.80;75.60;;;;;;5000769;28;20196;-75
2021/08/24 03:34:17;;;;;;;5.20;3.00;;;23.90;76.50;;;;;;4991841;28;20861;-74
2021/08/24 03:36:43;;;;;;;4.47;3.23;;;24.00;77.00;;;;;;4982859;28;20213;-75
2021/08/24 03:39:11;;;;;;;6.23;3.10;;;24.00;77.60;;;;;;5012907;28;20197;-74
2021/08/24 03:41:37;;;;;;;5.80;3.13;;;24.00;77.80;;;;;;4998784;28;20212;-75
2021/08/24 03:44:04;;;;;;;6.43;3.10;;;24.00;77.90;;;;;;4997522;28;20291;-72
2021/08/24 03:46:30;;;;;;;7.27;3.07;;;24.00;78.00;;;;;;4998559;28;20329;-73
2021/08/24 03:48:57;;;;;;;5.13;2.70;;;24.00;78.30;;;;;;4985027;28;20917;-71
2021/08/24 03:51:23;;;;;;;4.60;3.33;;;24.00;79.30;;;;;;5000950;28;20255;-73
2021/08/24 03:53:49;;;;;;;4.43;3.05;;;24.00;78.10;;;;;;5013653;28;20199;-72
2021/08/24 03:56:17;;;;;;;5.20;2.97;;;24.00;79.00;;;;;;4998850;28;20185;-71
2021/08/24 03:58:43;;;;;;;4.00;2.90;;;24.00;79.10;;;;;;4986106;28;20267;-72
2021/08/24 04:01:18;;;;;;;7.20;3.05;;;24.10;78.60;;;;;;4999343;28;20188;-73
2021/08/24 04:03:44;;;;;;;5.70;2.80;;;24.10;78.70;;;;;;4995001;28;20347;-73
2021/08/24 04:06:11;;;;;;;4.57;2.80;;;24.10;78.70;;;;;;4993903;28;20278;-73
2021/08/24 04:08:38;;;;;;;8.10;3.35;;;24.10;79.40;;;;;;5000349;28;20196;-75
2021/08/24 04:11:07;;;;;;;11.53;2.97;;;24.10;79.10;;;;;;5004511;28;20591;-74
2021/08/24 04:13:34;;;;;;;7.82;3.10;;;24.10;79.40;;;;;;5001777;28;20197;-72
2021/08/24 04:16:09;;;;;;;4.18;2.92;;;24.10;80.40;;;;;;4999778;28;20180;-75
2021/08/24 04:18:36;;;;;;;6.32;2.60;;;24.20;79.40;;;;;;4998941;28;20701;-71
2021/08/24 04:21:08;;;;;;;7.90;3.03;;;24.20;79.60;;;;;;4999493;28;20177;-75
2021/08/24 04:23:35;;;;;;;9.37;3.13;;;24.20;80.30;;;;;;5001962;28;20235;-72
2021/08/24 04:26:02;;;;;;;7.77;3.07;;;24.20;80.80;;;;;;5000421;28;20694;-72
2021/08/24 04:28:28;;;;;;;5.17;3.00;;;24.20;81.00;;;;;;4998340;28;20262;-74
2021/08/24 04:30:57;;;;;;;5.13;3.20;;;24.20;81.30;;;;;;5004737;28;20200;-74
2021/08/24 04:33:23;;;;;;;5.17;3.20;;;24.20;81.00;;;;;;4983625;28;20280;-74
2021/08/24 04:35:54;;;;;;;3.97;2.80;;;24.20;80.80;;;;;;4979489;28;20204;-75
2021/08/24 04:38:21;;;;;;;6.32;3.33;;;24.20;80.90;;;;;;5016540;28;20304;-73
2021/08/24 04:40:49;;;;;;;3.93;3.07;;;24.30;80.60;;;;;;5000944;28;20193;-73
2021/08/24 04:43:17;;;;;;;3.70;3.07;;;24.30;82.20;;;;;;5005221;28;20193;-71
2021/08/24 04:45:44;;;;;;;6.47;3.13;;;24.30;83.20;;;;;;4986874;28;20189;-72
2021/08/24 05:10:34;;;;;;;5.68;3.10;;;24.50;83.80;;;;;;5052781;28;20581;-75
2021/08/24 05:13:02;;;;;;;9.00;3.30;;;24.70;85.00;;;;;;5037551;28;20575;-75
2021/08/24 05:15:30;;;;;;;9.30;3.50;;;24.80;84.90;;;;;;5038916;28;20183;-75
2021/08/24 05:17:56;;;;;;;7.47;2.83;;;24.80;84.60;;;;;;5040898;28;20198;-75
2021/08/24 05:20:26;;;;;;;4.85;3.60;;;24.90;83.50;;;;;;5042522;28;20175;-75
2021/08/24 05:22:54;;;;;;;7.97;3.38;;;24.90;83.90;;;;;;5028006;28;20246;-75
2021/08/24 05:25:22;;;;;;;4.40;3.22;;;25.10;83.60;;;;;;5042089;28;20686;-75
2021/08/24 05:27:50;;;;;;;6.70;3.70;;;25.10;83.60;;;;;;5041116;28;20220;-75
2021/08/24 05:30:22;;;;;;;6.13;3.30;;;25.30;83.70;;;;;;5047724;28;20191;-76
2021/08/24 05:32:52;;;;;;;9.40;3.58;;;25.30;81.70;;;;;;5041843;28;20793;-73
2021/08/24 05:35:21;;;;;;;5.88;3.53;;;25.30;83.00;;;;;;5025829;28;20190;-75
2021/08/24 05:37:50;;;;;;;13.10;3.75;;;25.40;82.30;;;;;;5032839;28;20200;-75
2021/08/24 05:40:17;;;;;;;8.63;3.50;;;25.50;81.80;;;;;;5043678;28;20203;-75
2021/08/24 05:42:46;;;;;;;5.93;3.08;;;25.60;82.80;;;;;;5027517;28;20540;-75
2021/08/24 05:45:13;;;;;;;5.85;3.15;;;25.60;84.00;;;;;;5043045;28;20191;-75
2021/08/24 05:47:40;;;;;;;7.97;2.97;;;25.60;84.40;;;;;;5024669;28;20188;-75
2021/08/24 05:50:10;;;;;;;6.82;3.47;;;25.60;85.10;;;;;;5043626;28;20191;-75
2021/08/24 05:52:36;;;;;;;7.20;3.78;;;25.60;85.50;;;;;;5043416;28;20187;-76
2021/08/24 05:55:04;;;;;;;7.47;3.30;;;25.60;85.70;;;;;;5044831;28;20214;-74
2021/08/24 05:57:34;;;;;;;10.70;3.90;;;25.70;86.20;;;;;;5029019;28;20504;-77
2021/08/24 06:00:05;;;;;;;9.88;3.78;;;25.60;86.30;;;;;;5054174;28;20672;-76
2021/08/24 06:02:32;;;;;;;12.27;3.80;;;25.80;86.30;;;;;;5039547;28;20185;-75
2021/08/24 06:04:59;;;;;;;6.65;3.63;;;25.80;86.40;;;;;;5044626;28;20536;-75
2021/08/24 06:07:25;;;;;;;8.93;4.18;;;25.90;86.20;;;;;;5039665;28;20187;-75
2021/08/24 06:09:52;;;;;;;5.20;3.40;;;26.00;87.20;;;;;;5013773;28;20192;-75
2021/08/24 06:12:25;;;;;;;9.93;4.10;;;26.00;87.60;;;;;;5026192;28;20183;-73
2021/08/24 06:14:53;;;;;;;8.35;3.25;;;26.10;87.80;;;;;;5012820;28;20176;-75
2021/08/24 06:17:20;;;;;;;12.18;4.15;;;26.20;89.30;;;;;;5032705;28;20195;-73
2021/08/24 06:19:46;;;;;;;8.13;3.90;;;26.20;92.10;;;;;;5039425;28;20200;-74
2021/08/24 06:22:13;;;;;;;11.63;4.50;;;26.40;93.50;;;;;;5013929;28;20207;-73
2021/08/24 06:24:40;;;;;;;8.60;4.18;;;26.40;95.20;;;;;;5029778;28;20199;-73
2021/08/24 06:27:09;;;;;;;8.23;4.13;;;26.60;94.60;;;;;;5024660;28;20203;-73
2021/08/24 06:29:36;;;;;;;8.27;4.22;;;26.60;95.20;;;;;;5034108;28;21196;-75
2021/08/24 06:32:05;;;;;;;12.40;4.80;;;26.70;96.80;;;;;;5012562;28;20187;-73
2021/08/24 06:34:34;;;;;;;12.10;4.47;;;26.80;99.70;;;;;;5034034;28;20191;-72
2021/08/24 06:37:03;;;;;;;6.22;4.13;;;27.00;99.90;;;;;;5032220;28;20185;-73
2021/08/24 06:39:29;;;;;;;12.55;4.82;;;26.90;99.90;;;;;;5024001;28;20218;-73
2021/08/24 06:41:55;;;;;;;7.97;4.43;;;27.10;99.90;;;;;;5021692;28;20303;-75
2021/08/24 06:44:22;;;;;;;13.80;4.50;;;27.10;99.90;;;;;;5030367;28;20193;-73
2021/08/24 06:46:48;;;;;;;10.13;4.35;;;27.20;99.90;;;;;;5034081;28;20192;-73
2021/08/24 06:49:14;;;;;;;13.45;4.68;;;27.30;99.90;;;;;;5030382;28;20212;-73
2021/08/24 06:51:40;;;;;;;8.25;4.55;;;27.40;99.90;;;;;;5028820;28;20196;-73
2021/08/24 06:54:07;;;;;;;14.20;5.15;;;27.20;99.90;;;;;;5031493;28;20226;-73
2021/08/24 06:56:37;;;;;;;6.15;4.32;;;27.30;99.90;;;;;;5026260;28;20181;-73
2021/08/24 06:59:05;;;;;;;9.25;4.85;;;27.30;99.90;;;;;;5026730;28;20208;-72
2021/08/24 07:01:35;;;;;;;11.32;5.03;;;27.40;99.90;;;;;;5025002;28;20253;-72
2021/08/24 07:04:03;;;;;;;9.25;4.57;;;27.50;99.90;;;;;;5027651;28;20191;-73
2021/08/24 07:06:30;;;;;;;13.73;5.55;;;27.60;99.90;;;;;;5043074;28;20196;-73
2021/08/24 07:08:57;;;;;;;9.55;4.68;;;27.70;99.90;;;;;;5009248;28;20224;-74
2021/08/24 07:11:29;;;;;;;10.52;4.45;;;27.70;99.90;;;;;;5025197;28;20255;-74
2021/08/24 07:14:00;;;;;;;9.65;4.57;;;27.70;99.90;;;;;;5012584;28;20180;-75
2021/08/24 07:16:27;;;;;;;9.57;5.38;;;27.60;99.90;;;;;;5023717;28;20195;-74
2021/08/24 07:18:56;;;;;;;13.77;4.88;;;27.70;99.90;;;;;;5022624;28;20188;-74
2021/08/24 07:21:23;;;;;;;10.63;5.20;;;27.80;99.90;;;;;;5031864;28;20188;-74
2021/08/24 07:23:51;;;;;;;11.50;5.88;;;27.90;99.90;;;;;;5013103;28;20185;-73
2021/08/24 07:26:20;;;;;;;10.90;5.10;;;28.00;99.90;;;;;;5009365;28;20204;-73
2021/08/24 07:28:49;;;;;;;9.52;4.90;;;28.00;99.90;;;;;;5027200;28;20220;-73
2021/08/24 07:31:16;;;;;;;11.02;5.32;;;28.10;99.90;;;;;;5024982;28;20192;-72
2021/08/24 07:33:43;;;;;;;11.13;5.18;;;28.20;99.90;;;;;;5025741;28;20195;-73
2021/08/24 07:36:10;;;;;;;10.13;5.25;;;28.30;99.90;;;;;;5023737;28;20199;-73
2021/08/24 07:38:38;;;;;;;7.68;4.60;;;28.40;99.90;;;;;;5025854;28;20666;-73
2021/08/24 07:41:06;;;;;;;13.43;4.80;;;28.30;99.90;;;;;;5020722;28;20188;-73
2021/08/24 07:43:36;;;;;;;10.77;4.53;;;28.40;99.90;;;;;;5020737;28;20245;-73
2021/08/24 07:46:05;;;;;;;12.68;4.90;;;28.50;99.90;;;;;;5022671;28;20652;-73
2021/08/24 07:48:34;;;;;;;13.27;4.93;;;28.50;99.90;;;;;;5026923;28;20208;-73
2021/08/24 07:51:01;;;;;;;9.10;4.93;;;28.50;99.90;;;;;;5008647;28;20176;-72
2021/08/24 07:53:27;;;;;;;10.32;4.32;;;28.40;99.90;;;;;;5009481;28;20188;-72
2021/08/24 07:55:54;;;;;;;12.57;5.22;;;28.50;99.90;;;;;;5010248;28;20189;-74
2021/08/24 07:58:20;;;;;;;17.10;4.75;;;28.70;99.90;;;;;;5028255;28;20191;-74
2021/08/24 08:00:51;;;;;;;8.75;5.22;;;28.60;99.90;;;;;;5022070;28;20797;-73
2021/08/24 08:03:19;;;;;;;10.18;4.82;;;28.90;99.90;;;;;;5031849;28;20219;-74
2021/08/24 08:05:48;;;;;;;7.50;4.72;;;29.00;99.90;;;;;;5025109;28;20188;-74
2021/08/24 08:08:16;;;;;;;9.98;4.43;;;29.20;99.90;;;;;;5025806;28;20212;-74
2021/08/24 08:10:46;;;;;;;10.60;4.25;;;29.50;99.90;;;;;;5026047;28;20799;-74
2021/08/24 08:13:14;;;;;;;11.02;4.30;;;29.50;99.90;;;;;;5018683;28;21188;-74
2021/08/24 08:15:43;;;;;;;9.55;4.32;;;29.50;99.90;;;;;;5024446;28;20718;-72
2021/08/24 08:18:10;;;;;;;10.38;4.28;;;29.50;99.90;;;;;;5006399;28;20556;-74
2021/08/24 08:20:44;;;;;;;13.32;4.55;;;29.40;99.90;;;;;;4988410;28;20268;-73
2021/08/24 08:23:17;;;;;;;11.32;4.82;;;29.40;99.90;;;;;;5007321;28;20188;-75
2021/08/24 08:25:44;;;;;;;7.47;4.40;;;29.70;99.90;;;;;;5014964;28;20564;-73
2021/08/24 08:28:13;;;;;;;7.60;4.28;;;29.90;99.90;;;;;;5026945;28;20212;-75
2021/08/24 08:30:44;;;;;;;13.82;4.45;;;30.00;99.90;;;;;;5029224;28;20541;-73
2021/08/24 08:33:12;;;;;;;10.68;4.57;;;30.00;99.90;;;;;;5033629;28;20201;-73
2021/08/24 08:35:41;;;;;;;8.10;4.18;;;30.30;99.90;;;;;;5024897;28;20286;-73
2021/08/24 08:38:09;;;;;;;8.65;4.22;;;30.30;99.90;;;;;;5030176;28;20605;-73
2021/08/24 08:40:52;;;;;;;7.28;4.47;;;30.40;99.90;;;;;;5011820;28;20180;-73
2021/08/24 08:43:54;;;;;;;12.10;4.10;;;30.40;99.90;;;;;;5018896;28;20196;-73
2021/08/24 08:46:32;;;;;;;9.57;4.75;;;30.50;99.90;;;;;;5000785;28;20219;-73
2021/08/24 08:50:04;;;;;;;13.88;4.68;;;30.50;99.90;;;;;;5011919;28;20206;-73
2021/08/24 09:03:27;;;;;;;7.63;4.70;;;30.70;99.90;;;;;;5094752;27;20589;-74
2021/08/24 09:05:56;;;;;;;13.07;5.18;;;31.20;99.90;;;;;;5107145;28;20235;-74
2021/08/24 09:08:25;;;;;;;15.30;5.13;;;31.20;99.90;;;;;;5110480;28;20684;-73
2021/08/24 09:10:55;;;;;;;10.45;5.20;;;31.10;99.90;;;;;;5106099;28;20239;-74
2021/08/24 09:13:39;;;;;;;11.52;5.68;;;31.10;99.90;;;;;;5100497;28;20191;-74
2021/08/24 09:16:18;;;;;;;11.25;5.28;;;31.20;99.90;;;;;;5099327;27;20637;-73
2021/08/24 09:18:58;;;;;;;18.52;6.22;;;31.30;99.90;;;;;;5083980;28;20647;-73
2021/08/24 09:21:41;;;;;;;10.48;5.75;;;31.20;99.90;;;;;;5103830;28;20181;-73
2021/08/24 09:24:26;;;;;;;13.07;5.53;;;31.30;99.90;;;;;;5085235;28;20193;-73
2021/08/24 09:27:06;;;;;;;13.38;6.25;;;31.30;99.90;;;;;;5079096;28;20240;-74
2021/08/24 09:29:48;;;;;;;15.27;5.95;;;31.40;99.90;;;;;;5099690;28;20277;-75
2021/08/24 09:32:23;;;;;;;10.18;5.65;;;31.40;99.90;;;;;;5096442;28;20896;-72
2021/08/24 09:35:15;;;;;;;16.83;6.13;;;31.30;99.90;;;;;;5095324;28;20193;-74
2021/08/24 09:37:42;;;;;;;11.10;6.20;;;31.40;99.90;;;;;;5099358;28;20211;-76
2021/08/24 09:40:12;;;;;;;11.02;5.90;;;31.40;99.90;;;;;;5113345;28;20186;-73
2021/08/24 09:42:47;;;;;;;19.40;6.38;;;31.50;99.90;;;;;;5115225;27;20181;-73
2021/08/24 09:45:19;;;;;;;14.68;6.43;;;31.60;99.90;;;;;;5101188;28;20323;-73
2021/08/24 09:47:59;;;;;;;17.23;6.25;;;31.70;99.90;;;;;;5093678;28;20197;-74
2021/08/24 09:50:38;;;;;;;13.38;6.32;;;31.80;99.90;;;;;;5102060;28;20205;-73
2021/08/24 09:53:24;;;;;;;12.90;5.80;;;32.00;99.90;;;;;;5092006;28;20233;-74
2021/08/24 09:55:53;;;;;;;16.00;6.80;;;32.00;99.90;;;;;;5100237;28;20582;-76
2021/08/24 09:58:43;;;;;;;16.23;6.90;;;32.00;99.90;;;;;;5078082;28;20220;-75
2021/08/24 10:01:17;;;;;;;12.23;5.97;;;32.10;99.90;;;;;;5089501;28;20239;-75
2021/08/24 10:04:06;;;;;;;18.73;6.50;;;32.00;99.90;;;;;;5078241;28;20198;-75
2021/08/24 10:06:39;;;;;;;11.15;5.28;;;32.10;99.90;;;;;;5094490;28;20239;-72
2021/08/24 10:09:27;;;;;;;16.95;5.75;;;32.10;99.90;;;;;;5083406;28;20210;-73
2021/08/24 10:12:13;;;;;;;16.67;5.63;;;32.30;99.90;;;;;;5079265;28;20326;-73
2021/08/24 10:14:42;;;;;;;11.27;5.35;;;32.70;99.90;;;;;;5081532;28;20220;-72
2021/08/24 10:17:36;;;;;;;13.63;6.32;;;34.30;99.90;;;;;;5078597;28;20175;-73
2021/08/24 10:20:37;;;;;;;15.52;6.18;;;35.50;99.90;;;;;;5078133;28;20179;-73
2021/08/24 10:23:24;;;;;;;16.40;5.35;;;36.30;99.90;;;;;;5073745;28;20205;-72
2021/08/24 10:25:56;;;;;;;15.57;5.82;;;35.60;99.90;;;;;;5080609;28;20230;-73
2021/08/24 10:28:29;;;;;;;13.07;5.20;;;34.90;99.90;;;;;;5081168;28;20240;-73
2021/08/24 10:31:01;;;;;;;14.57;6.10;;;34.50;99.90;;;;;;5079569;28;20209;-73
2021/08/24 10:33:48;;;;;;;13.07;5.47;;;34.30;99.90;;;;;;5075581;28;20628;-73
2021/08/24 10:36:37;;;;;;;17.58;6.50;;;34.30;99.90;;;;;;5077238;28;20197;-73
2021/08/24 10:39:22;;;;;;;15.52;5.90;;;35.30;99.90;;;;;;5068436;28;20242;-73
2021/08/24 10:42:26;;;;;;;14.02;5.57;;;37.30;99.90;;;;;;5073944;28;20218;-73
2021/08/24 10:45:00;;;;;;;14.15;5.68;;;39.20;98.10;;;;;;5078879;28;20825;-73
2021/08/24 10:47:44;;;;;;;13.50;5.53;;;37.10;99.00;;;;;;5075303;28;20730;-73
2021/08/24 10:50:34;;;;;;;10.85;5.50;;;35.40;99.90;;;;;;5064256;28;20346;-73
2021/08/24 10:53:43;;;;;;;11.90;6.28;;;34.50;99.90;;;;;;5060149;28;20608;-73
2021/08/24 10:56:33;;;;;;;15.73;5.85;;;33.80;99.90;;;;;;5082479;28;20197;-73
2021/08/24 10:59:44;;;;;;;11.38;5.47;;;33.70;99.90;;;;;;5088391;28;20664;-73
2021/08/24 11:02:27;;;;;;;17.35;5.47;;;33.50;99.90;;;;;;5085421;28;20267;-73
2021/08/24 11:05:25;;;;;;;13.90;5.18;;;33.40;99.90;;;;;;5074799;28;20182;-73
2021/08/24 11:09:13;;;;;;;12.32;5.70;;;33.20;99.90;;;;;;5070647;28;20183;-73
2021/08/24 11:12:16;;;;;;;13.23;5.30;;;33.40;99.90;;;;;;5025029;28;20222;-73
2021/08/24 11:15:07;;;;;;;15.30;5.70;;;33.20;99.90;;;;;;5078931;28;20660;-73
2021/08/24 11:18:01;;;;;;;18.52;5.60;;;33.40;99.90;;;;;;5081566;28;20239;-73
2021/08/24 11:20:43;;;;;;;14.25;5.03;;;32.90;99.90;;;;;;5082668;28;20817;-73
2021/08/24 11:23:50;;;;;;;16.70;5.60;;;32.70;99.90;;;;;;5069981;28;20181;-73
2021/08/24 11:26:26;;;;;;;15.00;5.00;;;33.10;99.90;;;;;;5065838;28;20185;-73
2021/08/24 11:29:01;;;;;;;13.65;5.00;;;33.10;99.90;;;;;;5078584;28;20186;-74
2021/08/24 11:31:58;;;;;;;9.82;5.30;;;33.00;99.90;;;;;;5083683;28;20223;-73
2021/08/24 11:35:10;;;;;;;18.25;5.75;;;33.20;99.90;;;;;;5076202;28;20190;-73
2021/08/24 11:38:00;;;;;;;12.40;5.20;;;33.50;99.90;;;;;;5062767;28;20182;-73
2021/08/24 11:40:41;;;;;;;14.82;5.25;;;33.40;99.90;;;;;;5074097;28;20187;-73
2021/08/24 11:43:43;;;;;;;14.95;5.68;;;33.40;99.90;;;;;;5062257;28;20220;-73
2021/08/24 11:46:25;;;;;;;10.00;5.03;;;33.60;99.90;;;;;;5067162;28;20657;-73
2021/08/24 11:49:16;;;;;;;11.18;4.75;;;33.60;99.90;;;;;;5079433;28;20189;-73
2021/08/24 11:52:11;;;;;;;8.77;4.47;;;33.50;99.90;;;;;;5077708;28;20241;-73
2021/08/24 11:54:52;;;;;;;9.57;4.30;;;33.50;96.90;;;;;;5058406;28;20190;-73
2021/08/24 11:57:41;;;;;;;19.00;4.65;;;33.30;96.40;;;;;;5076408;28;20183;-74
2021/08/24 12:00:12;;;;;;;7.60;3.70;;;33.10;92.40;;;;;;5076809;28;20193;-73
2021/08/24 12:02:44;;;;;;;8.57;3.88;;;33.50;91.80;;;;;;5076846;28;20576;-73
2021/08/24 12:05:30;;;;;;;10.40;4.70;;;33.60;90.70;;;;;;5081022;28;20959;-72
2021/08/24 12:08:09;;;;;;;9.35;3.85;;;33.60;91.30;;;;;;5080110;28;20272;-73
2021/08/24 12:11:15;;;;;;;8.23;4.00;;;33.70;91.60;;;;;;5073839;28;20201;-73
2021/08/24 12:13:50;;;;;;;11.57;4.40;;;33.50;90.60;;;;;;5078841;28;20599;-73
2021/08/24 12:16:24;;;;;;;9.30;3.95;;;33.30;90.00;;;;;;5078468;28;20178;-73
2021/08/24 12:19:16;;;;;;;13.35;4.10;;;33.60;90.00;;;;;;5076516;28;20305;-74
2021/08/24 12:22:20;;;;;;;9.10;3.90;;;33.40;88.90;;;;;;5080094;28;20859;-73
2021/08/24 12:24:59;;;;;;;8.73;4.38;;;33.40;88.60;;;;;;5077162;28;20286;-73
2021/08/24 12:27:31;;;;;;;8.63;4.25;;;32.90;91.50;;;;;;5078610;28;20285;-73
2021/08/24 12:30:19;;;;;;;9.63;4.07;;;32.70;91.10;;;;;;5079844;28;20206;-73
2021/08/24 12:32:50;;;;;;;10.98;3.95;;;32.60;91.10;;;;;;5080398;28;20845;-73
2021/08/24 12:35:42;;;;;;;8.05;3.65;;;32.70;90.60;;;;;;5081087;28;20187;-74
2021/08/24 12:38:41;;;;;;;8.02;4.22;;;32.30;90.70;;;;;;5074784;28;20285;-74
2021/08/24 12:41:33;;;;;;;9.43;4.03;;;32.80;87.00;;;;;;5073889;28;20622;-73
2021/08/24 12:44:16;;;;;;;7.80;3.60;;;32.90;91.00;;;;;;5057420;28;20894;-74
2021/08/24 12:47:21;;;;;;;11.63;4.30;;;32.50;88.10;;;;;;5085256;28;20643;-74
2021/08/24 12:49:48;;;;;;;11.95;4.30;;;32.70;88.80;;;;;;5075901;28;20190;-73
2021/08/24 12:52:26;;;;;;;20.55;4.97;;;32.80;87.90;;;;;;5063831;28;20215;-74
2021/08/24 12:55:09;;;;;;;7.32;4.18;;;32.60;90.20;;;;;;5081579;28;20182;-73
2021/08/24 12:57:47;;;;;;;12.13;4.38;;;32.60;90.20;;;;;;5075276;28;20182;-73
2021/08/24 13:00:29;;;;;;;8.88;3.67;;;32.40;90.10;;;;;;5062312;28;20737;-73
2021/08/24 13:03:31;;;;;;;10.02;4.03;;;32.30;90.90;;;;;;5076321;28;20203;-73
2021/08/24 13:06:29;;;;;;;5.70;3.72;;;32.50;88.90;;;;;;5067947;28;20186;-73
2021/08/24 13:09:37;;;;;;;8.07;4.03;;;32.50;88.00;;;;;;5078686;28;20852;-73
2021/08/24 13:12:16;;;;;;;8.40;3.78;;;32.50;90.20;;;;;;5062543;28;20201;-73
2021/08/24 13:14:49;;;;;;;7.20;3.65;;;32.50;89.50;;;;;;5081560;28;20217;-73
2021/08/24 13:17:48;;;;;;;10.35;4.20;;;32.40;92.10;;;;;;5082154;28;20665;-73
2021/08/24 13:20:41;;;;;;;8.02;4.00;;;32.70;89.90;;;;;;5087126;28;20724;-73
2021/08/24 13:23:35;;;;;;;5.78;4.32;;;32.20;91.80;;;;;;5056403;28;20182;-73
2021/08/24 13:26:11;;;;;;;9.85;4.00;;;32.20;90.60;;;;;;5070169;28;20198;-73
2021/08/24 13:28:38;;;;;;;9.52;4.28;;;32.00;91.10;;;;;;5076264;28;20235;-73
2021/08/24 13:31:18;;;;;;;10.35;4.30;;;32.30;91.20;;;;;;5094779;28;20299;-73
2021/08/24 13:34:02;;;;;;;9.18;3.83;;;32.50;91.00;;;;;;5079977;28;20190;-73
2021/08/24 13:36:56;;;;;;;8.73;3.85;;;32.70;90.50;;;;;;5076173;28;20213;-73
2021/08/24 13:39:22;;;;;;;9.48;4.05;;;32.40;91.40;;;;;;5080421;28;20222;-73
2021/08/24 13:41:58;;;;;;;19.08;4.47;;;32.20;91.20;;;;;;5080756;28;20190;-73
2021/08/24 13:44:31;;;;;;;11.55;3.90;;;32.30;90.90;;;;;;5081833;28;20182;-73
2021/08/24 13:47:21;;;;;;;8.25;3.90;;;32.10;91.90;;;;;;5063566;28;20217;-73
2021/08/24 13:50:00;;;;;;;6.75;4.28;;;31.90;92.80;;;;;;5064398;28;20606;-73
2021/08/24 13:52:40;;;;;;;13.07;4.15;;;31.80;92.80;;;;;;5070706;28;20623;-73
2021/08/24 13:55:33;;;;;;;10.32;4.38;;;31.90;92.60;;;;;;5082741;28;20178;-74
2021/08/24 13:58:32;;;;;;;10.68;4.22;;;31.70;92.70;;;;;;5084158;28;20228;-73
2021/08/24 14:01:24;;;;;;;14.07;4.68;;;31.70;92.70;;;;;;5077947;28;20182;-73
2021/08/24 14:04:01;;;;;;;10.55;4.07;;;31.80;91.90;;;;;;5060291;28;20190;-73
2021/08/24 14:06:42;;;;;;;5.20;3.90;;;32.00;91.40;;;;;;5089264;28;20220;-73